TimeEDT,TemperatureF,Dew PointF,Humidity,Sea Level PressureIn,VisibilityMPH,Wind Direction,Wind SpeedMPH,Gust SpeedMPH,PrecipitationIn,Events,Conditions,WindDirDegrees,DateUTC
12:42 AM,71.6,69.8,94,29.88,3.0,Calm,Calm,-,0.03,,Overcast,0,2013-08-29 04:42:00
12:54 AM,72.0,70.0,93,29.88,3.0,Calm,Calm,-,0.03,,Overcast,0,2013-08-29 04:54:00
1:05 AM,71.6,69.8,94,29.87,2.5,Calm,Calm,-,N/A,,Mostly Cloudy,0,2013-08-29 05:05:00
1:29 AM,71.6,69.8,94,29.87,1.8,Calm,Calm,-,N/A,,Mostly Cloudy,0,2013-08-29 05:29:00
1:49 AM,71.6,69.8,94,29.87,0.8,NNE,3.5,-,N/A,,Mist,30,2013-08-29 05:49:00
1:54 AM,71.1,69.1,93,29.87,1.0,Calm,Calm,-,N/A,,Mist,0,2013-08-29 05:54:00
2:02 AM,69.8,69.8,100,29.87,1.5,Calm,Calm,-,N/A,,Scattered Clouds,0,2013-08-29 06:02:00
2:21 AM,69.8,69.8,100,29.87,1.0,NNE,3.5,-,N/A,,Mostly Cloudy,20,2013-08-29 06:21:00
2:28 AM,69.8,69.8,100,29.88,1.2,NNE,3.5,-,N/A,,Mostly Cloudy,30,2013-08-29 06:28:00
2:36 AM,69.8,69.8,100,29.88,1.5,NNE,3.5,-,N/A,,Overcast,30,2013-08-29 06:36:00
2:54 AM,71.1,69.1,93,29.88,1.5,NNE,3.5,-,N/A,,Overcast,30,2013-08-29 06:54:00
3:54 AM,70.0,68.0,93,29.88,1.2,Calm,Calm,-,N/A,,Mostly Cloudy,0,2013-08-29 07:54:00
4:47 AM,69.8,66.2,88,29.90,1.8,NE,3.5,-,N/A,,Scattered Clouds,40,2013-08-29 08:47:00
4:54 AM,69.1,66.9,93,29.90,1.8,Calm,Calm,-,N/A,,Partly Cloudy,0,2013-08-29 08:54:00
5:09 AM,69.8,66.2,88,29.90,2.0,Calm,Calm,-,N/A,,Clear,0,2013-08-29 09:09:00
5:29 AM,69.8,66.2,88,29.91,2.0,Calm,Calm,-,N/A,,Mostly Cloudy,0,2013-08-29 09:29:00
5:38 AM,69.8,66.2,88,29.92,2.0,NE,4.6,-,N/A,,Mostly Cloudy,50,2013-08-29 09:38:00
5:54 AM,69.1,68.0,96,29.92,2.0,Calm,Calm,-,N/A,,Overcast,0,2013-08-29 09:54:00
6:19 AM,69.8,68.0,94,29.92,2.0,Calm,Calm,-,N/A,,Overcast,0,2013-08-29 10:19:00
6:41 AM,69.8,68.0,94,29.93,1.2,Calm,Calm,-,N/A,,Overcast,0,2013-08-29 10:41:00
6:54 AM,70.0,68.0,93,29.94,1.2,NNE,3.5,-,N/A,,Overcast,30,2013-08-29 10:54:00
7:03 AM,69.8,68.0,94,29.94,1.5,NNE,3.5,-,N/A,,Overcast,30,2013-08-29 11:03:00
7:43 AM,71.6,69.8,94,29.94,2.0,NNE,3.5,-,N/A,,Overcast,30,2013-08-29 11:43:00
7:54 AM,72.0,69.1,91,29.94,2.5,NNE,4.6,-,N/A,,Mostly Cloudy,30,2013-08-29 11:54:00
8:11 AM,73.4,69.8,88,29.95,3.0,NNE,5.8,-,N/A,,Mostly Cloudy,30,2013-08-29 12:11:00
8:21 AM,73.4,69.8,88,29.95,3.0,NE,4.6,-,N/A,,Mostly Cloudy,50,2013-08-29 12:21:00
8:35 AM,73.4,69.8,88,29.96,3.0,NE,3.5,-,N/A,,Overcast,40,2013-08-29 12:35:00
8:54 AM,73.0,69.1,87,29.96,4.0,NE,3.5,-,N/A,,Overcast,40,2013-08-29 12:54:00
9:23 AM,73.4,69.8,88,29.97,5.0,NNE,6.9,-,N/A,,Overcast,30,2013-08-29 13:23:00
9:54 AM,73.0,69.1,87,29.98,6.0,ENE,4.6,-,N/A,,Overcast,60,2013-08-29 13:54:00
10:35 AM,71.6,68.0,88,29.99,8.0,ENE,5.8,-,0.01,,Overcast,60,2013-08-29 14:35:00
10:54 AM,72.0,66.9,84,30.00,7.0,East,9.2,-,0.01,,Overcast,80,2013-08-29 14:54:00
11:04 AM,71.6,66.2,83,30.00,6.0,ENE,5.8,-,N/A,,Overcast,70,2013-08-29 15:04:00
11:29 AM,71.6,66.2,83,30.01,7.0,NE,4.6,-,N/A,,Overcast,50,2013-08-29 15:29:00
11:54 AM,75.0,66.9,76,30.00,8.0,NE,3.5,-,N/A,,Overcast,50,2013-08-29 15:54:00
12:54 PM,75.9,66.0,71,30.00,10.0,NE,8.1,-,N/A,,Overcast,50,2013-08-29 16:54:00
1:16 PM,75.2,66.2,73,30.01,10.0,NE,5.8,-,N/A,,Overcast,50,2013-08-29 17:16:00
1:54 PM,78.1,68.0,71,30.00,10.0,NNE,6.9,-,N/A,,Mostly Cloudy,30,2013-08-29 17:54:00
2:44 PM,77.0,66.2,69,30.00,10.0,NE,4.6,-,N/A,,Overcast,50,2013-08-29 18:44:00
2:54 PM,79.0,66.9,66,30.00,10.0,NE,6.9,-,N/A,,Mostly Cloudy,50,2013-08-29 18:54:00
3:54 PM,80.1,66.9,64,29.99,10.0,NE,3.5,-,N/A,,Partly Cloudy,50,2013-08-29 19:54:00
4:54 PM,80.1,66.0,62,29.99,10.0,Calm,Calm,-,N/A,,Mostly Cloudy,0,2013-08-29 20:54:00
5:54 PM,78.1,66.9,68,29.98,10.0,Variable,5.8,-,N/A,,Partly Cloudy,0,2013-08-29 21:54:00
6:54 PM,73.9,66.0,76,30.00,10.0,Variable,3.5,-,N/A,,Scattered Clouds,0,2013-08-29 22:54:00
7:54 PM,71.1,64.9,81,30.02,10.0,Calm,Calm,-,N/A,,Clear,0,2013-08-29 23:54:00
8:54 PM,69.1,64.9,87,30.03,10.0,Calm,Calm,-,N/A,,Clear,0,2013-08-30 00:54:00
9:54 PM,66.9,64.9,93,30.03,10.0,Calm,Calm,-,N/A,,Clear,0,2013-08-30 01:54:00
10:54 PM,66.9,64.9,93,30.03,10.0,Calm,Calm,-,N/A,,Scattered Clouds,0,2013-08-30 02:54:00
11:54 PM,68.0,64.9,90,30.02,10.0,Calm,Calm,-,N/A,,Partly Cloudy,0,2013-08-30 03:54:00